TFM - Tactical Decision Aid (Experimental) INFO Settings

ID: Runway Winds: CIG/VIS Threshold: METAR Board: Map:

kiad - Washington-Dulles Intl

Updated at: 1727 UTC 30 Mar 2015
Latest TAF at: 1502 UTC 30 Mar 2015

TAF Board

Time1652Z30/18Z30/19Z30/20Z30/21Z30/22Z30/23Z31/00Z31/01Z31/02Z31/03Z31/04Z31/05Z31/06Z
TypeOBSPRVLPRVLPRVLPRVLPRVLPRVLPRVLPRVLPRVLPRVLPRVLPRVLPRVL
VIS10>6>6>6>6>6>6>6>6>6>6>6>6>6
CIG----------------------------
CoverSCTSCTSCTSCTSCTSCTSCTFEWFEWFEWFEWFEWFEWFEW
FltCatVFRVFRVFRVFRVFRVFRVFRVFRVFRVFRVFRVFRVFRVFR
WX----------------------------
WDir250290290290290290290290290290290290290290
WSpd81414141414148888888
WGst16262626262626--------------
TAF
KIAD 301502Z 3015/3118 22009KT P6SM BKN050 OVC080
  FM301700 29014G26KT P6SM SCT070
  FM310000 29008KT P6SM FEW200
  FM310800 23005KT P6SM SCT110
  FM311000 22004KT P6SM BKN040
  FM311600 21012KT P6SM BKN060


METAR
KIAD 301652Z 25008G16KT 10SM FEW048 SCT065 13/00 A2989 RMK AO2 SLP122 T01330000

TAF/METAR Board Legend

Potential Impact
  None Marginal Slight Moderate High
Visibility (sm) > ≤X≤ <
Ceiling (100 ft) > ≤X≤ <
Wind Speed (kt) <10 10≤X<20 20≤X<30 ≥30
Wind Gust (kt) <15 15≤X<25 25≤X<35 ≥35
Weather No Wx Reported VCTS -TS,-FZRA TS,FZRA +TS,+FZRA




Notice: Undefined index: kiad in /caws/site/new_awc/application/modules/trafficflowmgmt/controllers/TdaController.php on line 188

Notice: Undefined index: kiad in /caws/site/new_awc/application/modules/trafficflowmgmt/controllers/TdaController.php on line 189